createdAt,value
2022-08-12T00:01:13.006Z,42.51
2022-08-12T00:03:59.579Z,42.80
2022-08-12T00:06:47.140Z,42.75
2022-08-12T00:09:33.195Z,42.77
2022-08-12T00:12:19.748Z,43.39
2022-08-12T00:15:05.763Z,43.24
2022-08-12T00:17:52.506Z,43.43
2022-08-12T00:20:38.433Z,43.14
2022-08-12T00:23:24.419Z,43.44
2022-08-12T00:26:22.629Z,43.37
2022-08-12T00:29:13.965Z,43.60
2022-08-12T00:32:01.433Z,44.10
2022-08-12T00:34:51.541Z,44.11
2022-08-12T00:37:40.053Z,43.73
2022-08-12T00:40:31.907Z,44.15
2022-08-12T00:43:00.743Z,43.98
2022-08-12T00:45:48.489Z,44.31
2022-08-12T00:48:17.040Z,43.86
2022-08-12T00:50:46.071Z,43.75
2022-08-12T00:53:13.688Z,43.99
2022-08-12T00:55:46.621Z,44.17
2022-08-12T00:58:18.651Z,44.43
2022-08-12T01:00:45.834Z,44.48
2022-08-12T01:03:19.645Z,44.27
2022-08-12T01:06:07.166Z,44.49
2022-08-12T01:08:53.098Z,43.94
2022-08-12T01:11:30.962Z,44.51
2022-08-12T01:14:03.466Z,44.23
2022-08-12T01:16:31.345Z,44.36
2022-08-12T01:19:00.519Z,44.09
2022-08-12T01:21:27.491Z,44.54
2022-08-12T01:24:29.877Z,44.26
2022-08-12T01:27:01.517Z,44.50
2022-08-12T01:29:33.453Z,44.24
2022-08-12T01:32:08.002Z,44.75
2022-08-12T01:34:38.436Z,44.51
2022-08-12T01:37:09.574Z,44.87
2022-08-12T01:40:34.653Z,44.46
2022-08-12T01:43:01.629Z,44.37
2022-08-12T01:45:43.368Z,44.55
2022-08-12T01:49:00.343Z,44.39
2022-08-12T01:52:20.473Z,44.73
2022-08-12T01:54:45.805Z,44.96
2022-08-12T01:57:58.524Z,44.91
2022-08-12T02:00:44.982Z,44.95
2022-08-12T02:04:32.228Z,44.98
2022-08-12T02:08:03.068Z,45.02
2022-08-12T02:11:04.473Z,45.21
2022-08-12T02:14:20.649Z,45.51
2022-08-12T02:17:56.350Z,45.53
2022-08-12T02:20:35.425Z,45.43
2022-08-12T02:23:23.412Z,45.80
2022-08-12T02:25:56.936Z,45.85
2022-08-12T02:28:25.189Z,45.75
2022-08-12T02:30:52.382Z,45.56
2022-08-12T02:33:20.152Z,46.14
2022-08-12T02:35:48.578Z,46.21
2022-08-12T02:38:17.397Z,46.13
2022-08-12T02:40:52.377Z,46.50
2022-08-12T02:43:30.725Z,46.76
2022-08-12T02:46:13.751Z,46.64
2022-08-12T02:48:55.794Z,46.43
2022-08-12T02:51:35.460Z,46.60
2022-08-12T02:54:06.245Z,46.79
2022-08-12T02:56:40.982Z,46.96
2022-08-12T02:59:12.876Z,46.95
2022-08-12T03:01:57.155Z,47.05
2022-08-12T03:04:33.621Z,46.88
2022-08-12T03:07:37.144Z,47.02
2022-08-12T03:10:36.939Z,46.92
2022-08-12T03:13:08.127Z,46.96
2022-08-12T03:15:36.300Z,47.13
2022-08-12T03:18:27.094Z,47.18
2022-08-12T03:21:01.628Z,47.30
2022-08-12T03:23:31.443Z,47.36
2022-08-12T03:26:03.548Z,47.29
2022-08-12T03:28:53.603Z,47.55
2022-08-12T03:31:33.639Z,47.69
2022-08-12T03:34:10.354Z,47.75
2022-08-12T03:36:41.442Z,47.72
2022-08-12T03:39:18.361Z,47.93
2022-08-12T03:42:06.326Z,47.96
2022-08-12T03:45:19.687Z,47.82
2022-08-12T03:48:24.191Z,48.08
2022-08-12T03:51:10.823Z,47.79
2022-08-12T03:53:56.550Z,47.99
2022-08-12T03:56:42.582Z,47.98
2022-08-12T03:59:28.378Z,48.31
2022-08-12T04:01:59.025Z,47.97
2022-08-12T04:04:34.759Z,48.54
2022-08-12T04:07:09.599Z,48.19
2022-08-12T04:09:40.549Z,48.45
2022-08-12T04:12:32.380Z,48.64
2022-08-12T04:15:01.896Z,48.52
2022-08-12T04:17:29.381Z,48.45
2022-08-12T04:19:58.550Z,49.15
2022-08-12T04:22:30.521Z,49.05
2022-08-12T04:25:01.184Z,49.07
2022-08-12T04:27:31.520Z,49.30
2022-08-12T04:30:30.377Z,49.36
2022-08-12T04:32:52.174Z,49.43
2022-08-12T04:35:21.654Z,49.30
2022-08-12T04:37:57.923Z,49.58
2022-08-12T04:40:33.776Z,49.62
2022-08-12T04:43:02.115Z,49.46
2022-08-12T04:45:31.259Z,49.85
2022-08-12T04:47:59.327Z,49.43
2022-08-12T04:50:34.037Z,49.81
2022-08-12T04:53:09.195Z,49.84
2022-08-12T04:55:39.052Z,49.82
2022-08-12T04:58:10.511Z,49.55
2022-08-12T05:00:38.296Z,49.59
2022-08-12T05:03:07.492Z,49.64
2022-08-12T05:05:36.855Z,49.38
2022-08-12T05:08:08.045Z,49.51
2022-08-12T05:10:36.015Z,49.49
2022-08-12T05:13:11.415Z,49.47
2022-08-12T05:16:03.800Z,49.27
2022-08-12T05:18:29.014Z,49.14
2022-08-12T05:20:59.072Z,49.50
2022-08-12T05:23:27.140Z,49.65
2022-08-12T05:25:56.874Z,49.63
2022-08-12T05:28:27.132Z,49.51
2022-08-12T05:30:55.820Z,49.17
2022-08-12T05:33:28.621Z,49.48
2022-08-12T05:35:55.794Z,49.05
2022-08-12T05:39:01.025Z,49.20
2022-08-12T05:41:32.902Z,49.17
2022-08-12T05:44:08.526Z,48.98
2022-08-12T05:46:37.477Z,49.44
2022-08-12T05:49:06.066Z,49.38
2022-08-12T05:51:40.271Z,49.29
2022-08-12T05:54:08.909Z,49.36
2022-08-12T05:56:36.981Z,49.19
2022-08-12T05:59:09.411Z,49.36
2022-08-12T06:02:09.557Z,49.31
2022-08-12T06:04:25.079Z,49.01
2022-08-12T06:06:53.653Z,48.84
2022-08-12T06:09:22.705Z,49.41
2022-08-12T06:12:04.204Z,49.26
2022-08-12T06:14:37.719Z,48.90
2022-08-12T06:17:10.098Z,48.80
2022-08-12T06:20:28.954Z,48.79
2022-08-12T06:22:26.898Z,48.52
2022-08-12T06:24:54.187Z,48.47
2022-08-12T06:27:21.797Z,48.58
2022-08-12T06:30:10.071Z,48.31
2022-08-12T06:32:42.763Z,48.60
2022-08-12T06:35:25.148Z,48.35
2022-08-12T06:37:58.309Z,48.39
2022-08-12T06:40:44.705Z,48.25
2022-08-12T06:43:14.167Z,47.78
2022-08-12T06:45:49.411Z,47.62
2022-08-12T06:48:17.477Z,47.71
2022-08-12T06:50:46.444Z,47.61
2022-08-12T06:53:13.807Z,47.87
2022-08-12T06:55:57.721Z,47.62
2022-08-12T06:58:27.903Z,47.70
2022-08-12T07:00:58.191Z,47.84
2022-08-12T07:03:30.113Z,47.73
2022-08-12T07:06:04.274Z,47.64
2022-08-12T07:08:34.181Z,47.26
2022-08-12T07:11:05.848Z,47.62
2022-08-12T07:14:02.302Z,47.21
2022-08-12T07:16:45.967Z,47.21
2022-08-12T07:19:13.711Z,47.35
2022-08-12T07:22:00.119Z,47.27
2022-08-12T07:24:30.481Z,46.92
2022-08-12T07:26:57.804Z,47.03
2022-08-12T07:29:58.387Z,46.66
2022-08-12T07:32:16.609Z,46.74
2022-08-12T07:34:43.583Z,46.37
2022-08-12T07:37:10.944Z,46.79
2022-08-12T07:39:49.934Z,46.37
2022-08-12T07:42:18.589Z,46.33
2022-08-12T07:44:46.329Z,46.35
2022-08-12T07:47:18.708Z,46.38
2022-08-12T07:50:05.200Z,46.45
2022-08-12T07:52:43.799Z,46.21
2022-08-12T07:55:12.177Z,46.42
2022-08-12T07:57:59.524Z,45.47
2022-08-12T08:00:32.556Z,45.95
2022-08-12T08:03:00.473Z,45.81
2022-08-12T08:05:46.502Z,45.77
2022-08-12T08:08:16.941Z,45.31
2022-08-12T08:10:44.997Z,45.22
2022-08-12T08:13:12.647Z,45.22
2022-08-12T08:18:29.146Z,44.66
2022-08-12T08:20:56.975Z,44.72
2022-08-12T08:23:46.548Z,44.46
2022-08-12T08:26:15.994Z,44.18
2022-08-12T08:28:43.957Z,44.10
2022-08-12T08:31:13.497Z,44.41
2022-08-12T08:34:09.571Z,44.03
2022-08-12T08:36:29.505Z,44.15
2022-08-12T08:38:58.229Z,43.48
2022-08-12T08:42:14.694Z,43.47
2022-08-12T08:44:38.792Z,43.45
2022-08-12T08:47:08.115Z,43.21
2022-08-12T08:49:37.258Z,42.75
2022-08-12T08:52:10.437Z,42.17
2022-08-12T08:54:38.260Z,42.41
2022-08-12T08:57:08.701Z,42.10
2022-08-12T08:59:36.328Z,41.87
2022-08-12T09:02:04.075Z,41.71
2022-08-12T09:05:12.658Z,41.92
2022-08-12T09:07:59.416Z,41.88
2022-08-12T09:10:53.340Z,41.21
2022-08-12T09:13:23.480Z,41.23
2022-08-12T09:15:57.771Z,40.70
2022-08-12T09:21:14.641Z,41.30
2022-08-12T09:23:58.600Z,41.29
2022-08-12T09:26:31.194Z,40.62
2022-08-12T09:29:00.784Z,40.76
2022-08-12T09:32:07.498Z,40.52
2022-08-12T09:34:28.474Z,40.70
2022-08-12T09:37:02.632Z,40.50
2022-08-12T09:40:03.590Z,40.32
2022-08-12T09:43:11.690Z,40.64
2022-08-12T09:46:19.509Z,40.42
2022-08-12T09:48:26.857Z,40.38
2022-08-12T09:51:02.362Z,40.08
2022-08-12T09:53:38.580Z,39.80
2022-08-12T09:57:00.129Z,38.96
2022-08-12T09:59:01.699Z,38.96
2022-08-12T10:01:35.759Z,38.58
2022-08-12T10:04:19.820Z,38.79
2022-08-12T10:06:54.020Z,37.98
2022-08-12T10:09:28.972Z,37.92
2022-08-12T10:12:31.649Z,37.23
2022-08-12T10:15:02.275Z,36.92
2022-08-12T10:17:30.118Z,37.26
2022-08-12T10:19:59.643Z,37.12
2022-08-12T10:22:40.057Z,37.33
2022-08-12T10:26:33.824Z,36.84
2022-08-12T10:28:38.360Z,37.23
2022-08-12T10:31:06.678Z,36.81
2022-08-12T10:34:06.204Z,36.39
2022-08-12T10:36:40.174Z,36.06
2022-08-12T10:40:02.055Z,36.68
2022-08-12T10:42:29.633Z,35.10
2022-08-12T10:45:01.209Z,35.64
2022-08-12T10:48:07.049Z,35.52
2022-08-12T10:50:35.899Z,35.31
2022-08-12T10:53:11.874Z,35.23
2022-08-12T10:55:49.008Z,35.13
2022-08-12T10:58:28.385Z,35.23
2022-08-12T11:01:26.139Z,34.48
2022-08-12T11:04:26.005Z,34.81
2022-08-12T11:07:08.843Z,35.26
2022-08-12T11:10:00.679Z,34.83
2022-08-12T11:12:55.503Z,34.78
2022-08-12T11:15:33.004Z,34.85
2022-08-12T11:18:18.376Z,34.46
2022-08-12T11:20:47.958Z,34.30
2022-08-12T11:23:25.418Z,34.10
2022-08-12T11:26:06.019Z,34.15
2022-08-12T11:28:36.873Z,33.83
2022-08-12T11:31:12.325Z,34.08
2022-08-12T11:34:05.277Z,33.97
2022-08-12T11:36:30.967Z,33.56
2022-08-12T11:39:01.328Z,33.93
2022-08-12T11:41:34.985Z,33.55
2022-08-12T11:44:34.996Z,33.32
2022-08-12T11:46:52.774Z,33.52
2022-08-12T11:49:31.602Z,33.63
2022-08-12T11:52:04.185Z,33.22
2022-08-12T11:54:50.939Z,33.22
2022-08-12T11:58:07.293Z,33.10
2022-08-12T12:02:54.767Z,32.04
2022-08-12T12:05:22.109Z,32.67
2022-08-12T12:08:38.416Z,31.60
2022-08-12T12:10:43.392Z,31.63
2022-08-12T12:13:23.293Z,31.55
2022-08-12T12:16:00.620Z,31.98
2022-08-12T12:18:34.850Z,31.74
2022-08-12T12:21:08.347Z,31.04
2022-08-12T12:23:36.557Z,31.74
2022-08-12T12:26:18.511Z,31.36
2022-08-12T12:28:55.009Z,31.82
2022-08-12T12:32:09.968Z,31.88
2022-08-12T12:34:30.491Z,31.05
2022-08-12T12:36:58.257Z,30.70
2022-08-12T12:39:28.037Z,30.34
2022-08-12T12:42:43.023Z,29.71
2022-08-12T12:44:50.999Z,29.62
2022-08-12T12:47:29.993Z,28.44
2022-08-12T12:49:57.290Z,27.88
2022-08-12T12:52:26.753Z,26.94
2022-08-12T12:54:58.539Z,26.45
2022-08-12T12:57:36.156Z,26.24
2022-08-12T13:00:15.206Z,27.27
2022-08-12T13:02:58.113Z,26.72
2022-08-12T13:05:42.615Z,27.45
2022-08-12T13:08:28.089Z,26.66
2022-08-12T13:11:06.034Z,25.84
2022-08-12T13:14:07.134Z,25.52
2022-08-12T13:16:29.479Z,25.83
2022-08-12T13:18:57.382Z,26.00
2022-08-12T13:21:33.179Z,27.04
2022-08-12T13:24:09.895Z,26.68
2022-08-12T13:26:39.992Z,25.81
2022-08-12T13:29:11.656Z,25.57
2022-08-12T13:32:17.605Z,24.78
2022-08-12T13:34:34.521Z,25.31
2022-08-12T13:37:09.726Z,25.20
2022-08-12T13:39:39.034Z,24.29
2022-08-12T13:42:13.793Z,23.85
2022-08-12T13:44:43.281Z,23.46
2022-08-12T13:47:18.525Z,23.39
2022-08-12T13:49:53.552Z,23.22
2022-08-12T13:52:23.485Z,22.64
2022-08-12T13:54:55.831Z,22.20
2022-08-12T13:57:25.609Z,21.64
2022-08-12T13:59:55.463Z,21.62
2022-08-12T14:02:27.360Z,21.08
2022-08-12T14:04:56.328Z,19.98
2022-08-12T14:07:25.996Z,18.97
2022-08-12T14:10:12.591Z,19.66
2022-08-12T14:12:54.747Z,19.91
2022-08-12T14:15:36.635Z,20.37
2022-08-12T14:18:15.903Z,19.78
2022-08-12T14:20:47.666Z,19.17
2022-08-12T14:24:04.638Z,18.65
2022-08-12T14:26:11.807Z,18.24
2022-08-12T14:28:45.407Z,18.56
2022-08-12T14:31:31.345Z,18.40
2022-08-12T14:33:59.953Z,18.19
2022-08-12T14:36:27.412Z,18.88
2022-08-12T14:38:55.872Z,18.99
2022-08-12T14:41:37.184Z,19.38
2022-08-12T14:44:58.085Z,19.68
2022-08-12T14:47:01.063Z,20.36
2022-08-12T14:50:34.436Z,20.98
2022-08-12T14:53:11.489Z,20.80
2022-08-12T14:58:02.303Z,20.65
2022-08-12T15:00:52.394Z,20.36
2022-08-12T15:03:52.855Z,19.48
2022-08-12T15:06:44.618Z,18.40
2022-08-12T15:09:11.867Z,18.69
2022-08-12T15:11:55.036Z,18.26
2022-08-12T15:14:27.646Z,18.71
2022-08-12T15:17:00.545Z,18.28
2022-08-12T15:20:14.337Z,18.71
2022-08-12T15:22:37.556Z,18.82
2022-08-12T15:25:07.488Z,18.80
2022-08-12T15:28:05.146Z,18.56
2022-08-12T15:30:31.865Z,17.78
2022-08-12T15:32:59.535Z,18.04
2022-08-12T15:35:38.169Z,17.64
2022-08-12T15:38:19.891Z,17.23
2022-08-12T15:40:50.029Z,16.92
2022-08-12T15:43:51.762Z,16.65
2022-08-12T15:46:07.153Z,17.00
2022-08-12T15:48:46.436Z,16.43
2022-08-12T15:51:57.730Z,16.58
2022-08-12T15:54:34.089Z,16.96
2022-08-12T15:57:10.817Z,17.83
2022-08-12T16:00:00.019Z,17.06
2022-08-12T16:02:47.374Z,17.73
2022-08-12T16:06:12.414Z,17.66
2022-08-12T16:08:18.350Z,17.85
2022-08-12T16:10:46.039Z,17.48
2022-08-12T16:13:32.432Z,16.66
2022-08-12T16:16:12.473Z,16.97
2022-08-12T16:18:59.635Z,16.94
2022-08-12T16:21:51.761Z,16.64
2022-08-12T16:24:18.973Z,16.38
2022-08-12T16:26:51.469Z,16.92
2022-08-12T16:29:38.708Z,16.85
2022-08-12T16:32:23.070Z,17.30
2022-08-12T16:34:55.526Z,17.03
2022-08-12T16:37:32.548Z,16.93
2022-08-12T16:40:13.395Z,17.12
2022-08-12T16:42:53.757Z,17.08
2022-08-12T16:45:32.177Z,17.60
2022-08-12T16:48:33.944Z,17.77
2022-08-12T16:51:06.060Z,17.68
2022-08-12T16:53:43.871Z,17.71
2022-08-12T16:56:15.271Z,18.26
2022-08-12T16:58:43.489Z,18.22
2022-08-12T17:01:14.549Z,18.34
2022-08-12T17:03:51.988Z,18.07
2022-08-12T17:06:27.813Z,18.45
2022-08-12T17:09:03.228Z,18.30
2022-08-12T17:11:31.407Z,18.07
2022-08-12T17:13:59.456Z,18.27
2022-08-12T17:16:30.224Z,17.71
2022-08-12T17:19:03.123Z,18.06
2022-08-12T17:21:40.980Z,18.01
2022-08-12T17:24:19.411Z,18.24
2022-08-12T17:26:53.964Z,18.01
2022-08-12T17:29:23.955Z,18.43
2022-08-12T17:32:05.252Z,18.50
2022-08-12T17:34:51.507Z,18.41
2022-08-12T17:37:18.924Z,18.79
2022-08-12T17:40:15.524Z,18.70
2022-08-12T17:42:35.655Z,18.69
2022-08-12T17:45:18.607Z,19.04
2022-08-12T17:48:05.126Z,19.20
2022-08-12T17:50:44.554Z,19.31
2022-08-12T17:53:16.032Z,19.92
2022-08-12T17:55:49.495Z,20.53
2022-08-12T17:58:35.729Z,20.34
2022-08-12T18:01:06.336Z,21.56
2022-08-12T18:03:58.233Z,22.01
2022-08-12T18:06:30.293Z,21.82
2022-08-12T18:09:08.542Z,22.04
2022-08-12T18:12:06.541Z,22.76
2022-08-12T18:14:37.268Z,23.27
2022-08-12T18:17:10.201Z,23.66
2022-08-12T18:20:03.875Z,23.90
2022-08-12T18:22:32.706Z,24.67
2022-08-12T18:26:13.347Z,24.62
2022-08-12T18:28:15.827Z,24.82
2022-08-12T18:30:52.212Z,24.85
2022-08-12T18:33:25.297Z,25.01
2022-08-12T18:35:55.683Z,25.02
2022-08-12T18:38:27.188Z,25.05
2022-08-12T18:41:22.191Z,25.74
2022-08-12T18:44:07.741Z,26.00
2022-08-12T18:46:55.810Z,25.90
2022-08-12T18:49:38.025Z,26.18
2022-08-12T18:52:08.481Z,26.33
2022-08-12T18:54:53.916Z,26.97
2022-08-12T18:58:05.972Z,27.42
2022-08-12T19:00:21.606Z,27.65
2022-08-12T19:02:53.073Z,28.66
2022-08-12T19:05:20.783Z,28.27
2022-08-12T19:08:00.273Z,29.13
2022-08-12T19:10:31.335Z,28.83
2022-08-12T19:13:23.048Z,28.42
2022-08-12T19:15:54.342Z,29.05
2022-08-12T19:18:29.391Z,29.44
2022-08-12T19:21:06.466Z,29.52
2022-08-12T19:23:40.201Z,30.25
2022-08-12T19:26:10.697Z,30.37
2022-08-12T19:28:41.210Z,30.56
2022-08-12T19:31:56.093Z,31.38
2022-08-12T19:38:02.738Z,31.91
2022-08-12T19:40:32.761Z,31.93
2022-08-12T19:43:19.744Z,32.61
2022-08-12T19:45:56.244Z,32.62
2022-08-12T19:48:32.680Z,32.37
2022-08-12T19:51:09.172Z,32.32
2022-08-12T19:53:58.388Z,32.29
2022-08-12T19:56:28.223Z,32.68
2022-08-12T19:59:20.774Z,32.99
2022-08-12T20:02:01.553Z,33.90
2022-08-12T20:04:33.340Z,34.11
2022-08-12T20:07:01.704Z,33.54
2022-08-12T20:09:39.622Z,33.42
2022-08-12T20:12:13.334Z,33.59
2022-08-12T20:14:48.408Z,34.14
2022-08-12T20:17:16.700Z,33.92
2022-08-12T20:20:16.915Z,33.72
2022-08-12T20:22:43.535Z,33.91
2022-08-12T20:25:12.451Z,34.56
2022-08-12T20:28:05.631Z,34.55
2022-08-12T20:30:37.620Z,34.83
2022-08-12T20:33:23.087Z,34.29
2022-08-12T20:36:14.344Z,34.76
2022-08-12T20:38:47.516Z,34.61
2022-08-12T20:43:56.097Z,35.03
2022-08-12T20:46:32.213Z,34.96
2022-08-12T20:49:17.384Z,35.11
2022-08-12T20:51:55.382Z,35.35
2022-08-12T20:54:32.648Z,35.34
2022-08-12T20:57:08.697Z,35.15
2022-08-12T20:59:38.652Z,34.83
2022-08-12T21:02:15.259Z,34.90
2022-08-12T21:05:00.981Z,35.10
2022-08-12T21:07:34.222Z,34.70
2022-08-12T21:10:03.678Z,34.98
2022-08-12T21:12:33.009Z,35.32
2022-08-12T21:15:23.037Z,35.23
2022-08-12T21:18:15.625Z,35.86
2022-08-12T21:20:54.879Z,35.36
2022-08-12T21:23:23.291Z,35.32
2022-08-12T21:25:56.710Z,35.91
2022-08-12T21:28:31.884Z,35.62
2022-08-12T21:32:35.120Z,35.76
2022-08-12T21:34:08.886Z,35.95
2022-08-12T21:36:48.588Z,35.38
2022-08-12T21:39:21.411Z,36.29
2022-08-12T21:42:02.450Z,36.43
2022-08-12T21:45:46.917Z,36.36
2022-08-12T21:47:23.777Z,36.20
2022-08-12T21:50:04.086Z,36.57
2022-08-12T21:52:37.345Z,36.34
2022-08-12T21:55:19.443Z,36.19
2022-08-12T21:57:54.565Z,37.12
2022-08-12T22:00:34.212Z,36.62
2022-08-12T22:04:03.167Z,36.51
2022-08-12T22:06:31.065Z,36.88
2022-08-12T22:09:16.078Z,37.29
2022-08-12T22:11:56.087Z,36.95
2022-08-12T22:14:29.159Z,37.37
2022-08-12T22:16:58.460Z,37.05
2022-08-12T22:19:26.764Z,37.50
2022-08-12T22:21:58.485Z,37.55
2022-08-12T22:24:30.031Z,37.47
2022-08-12T22:27:08.260Z,37.86
2022-08-12T22:30:09.289Z,37.89
2022-08-12T22:32:51.482Z,37.96
2022-08-12T22:35:56.624Z,37.89
2022-08-12T22:38:29.260Z,38.39
2022-08-12T22:41:27.451Z,38.89
2022-08-12T22:44:14.055Z,38.39
2022-08-12T22:46:54.261Z,38.46
2022-08-12T22:49:48.919Z,38.45
2022-08-12T22:52:22.900Z,38.56
2022-08-12T22:55:02.660Z,38.68
2022-08-12T22:57:48.782Z,38.89
2022-08-12T23:00:27.334Z,39.40
2022-08-12T23:03:02.721Z,39.77
2022-08-12T23:05:57.483Z,39.45
2022-08-12T23:08:23.080Z,39.70
2022-08-12T23:10:51.873Z,39.43
2022-08-12T23:13:43.537Z,40.07
2022-08-12T23:16:28.488Z,39.71
2022-08-12T23:19:18.296Z,40.11
2022-08-12T23:22:05.589Z,40.44
2022-08-12T23:24:53.669Z,40.27
2022-08-12T23:27:51.827Z,40.55
2022-08-12T23:30:32.472Z,40.29
2022-08-12T23:33:19.724Z,40.90
2022-08-12T23:36:02.870Z,40.19
2022-08-12T23:38:32.984Z,40.48
2022-08-12T23:41:02.536Z,40.91
2022-08-12T23:43:39.260Z,41.24
2022-08-12T23:46:12.352Z,40.86
2022-08-12T23:48:47.715Z,40.87
2022-08-12T23:51:22.958Z,40.82
2022-08-12T23:54:02.657Z,41.38
2022-08-12T23:56:34.203Z,41.40
2022-08-12T23:59:06.779Z,42.01
